| time (UTC) | temp F | wind direction | speed knots | gust knots | rain 1hr in | rain 24hr in | rain mn in | humidity % | barometer mb |
| 20260508104545 | 39 | 1 | 1.7 | 2.6 | 0.00 | 0.00 | 0.00 | 91 | 1016.8 |
| 20260508103058 | 39 | 1 | 1.7 | 5.2 | 0.00 | 0.00 | 0.00 | 91 | 1017.0 |
| 20260508101551 | 39 | 1 | 0.9 | 4.3 | 0.00 | 0.00 | 0.00 | 90 | 1016.2 |
| 20260508100041 | 39 | 1 | 1.7 | 3.5 | 0.00 | 0.00 | 0.00 | 90 | 1015.7 |
| 20260508094536 | 39 | 1 | 1.7 | 4.3 | 0.00 | 0.00 | 0.00 | 89 | 1015.7 |
| 20260508093042 | 40 | 1 | 1.7 | 2.6 | 0.00 | 0.00 | 0.00 | 88 | 1016.1 |
| 20260508091544 | 42 | 0 | 0.0 | 1.7 | 0.00 | 0.00 | 0.00 | 88 | 1016.3 |
| 20260508090048 | 42 | 1 | 0.9 | 4.3 | 0.00 | 0.00 | 0.00 | 88 | 1016.3 |
| 20260508084542 | 43 | 1 | 4.3 | 6.1 | 0.00 | 0.00 | 0.00 | 88 | 1016.7 |
| 20260508083045 | 42 | 1 | 2.6 | 4.3 | 0.00 | 0.00 | 0.00 | 88 | 1016.8 |
| 20260508081542 | 43 | 1 | 1.7 | 3.5 | 0.00 | 0.00 | 0.00 | 87 | 1016.8 |
| 20260508080035 | 43 | 0 | 1.7 | 2.6 | 0.00 | 0.00 | 0.00 | 86 | 1016.9 |
| 20260508074544 | 44 | 1 | 0.9 | 3.5 | 0.00 | 0.00 | 0.00 | 85 | 1017.0 |
| 20260508073044 | 45 | 1 | 0.9 | 4.3 | 0.00 | 0.00 | 0.00 | 86 | 1016.7 |
| 20260508071538 | 46 | 1 | 3.5 | 6.1 | 0.00 | 0.00 | 0.00 | 85 | 1016.3 |
| 20260508070047 | 47 | 1 | 5.2 | 7.8 | 0.00 | 0.00 | 0.00 | 83 | 1016.1 |
| 20260508064544 | 48 | 1 | 4.3 | 8.7 | 0.00 | 0.00 | 0.00 | 82 | 1016.0 |
| 20260508063057 | 48 | 1 | 8.7 | 13.0 | 0.00 | 0.00 | 0.00 | 79 | 1018.1 |
| 20260508061541 | 49 | 1 | 6.1 | 8.7 | 0.00 | 0.00 | 0.00 | 76 | 1017.3 |
| 20260508060039 | 49 | 1 | 1.7 | 5.2 | 0.00 | 0.00 | 0.00 | 73 | 1016.2 |
| 20260508054537 | 50 | 1 | 4.3 | 8.7 | 0.00 | 0.00 | 0.00 | 72 | 1015.9 |
| 20260508053046 | 50 | 1 | 7.0 | 9.6 | 0.00 | 0.00 | 0.00 | 71 | 1015.8 |
| 20260508051542 | 50 | 1 | 2.6 | 5.2 | 0.00 | 0.00 | 0.00 | 73 | 1016.5 |
| 20260508050045 | 50 | 1 | 3.5 | 7.0 | 0.00 | 0.00 | 0.00 | 73 | 1017.1 |
| 20260508044542 | 49 | 1 | 4.3 | 7.8 | 0.00 | 0.00 | 0.00 | 72 | 1016.4 |
| 20260508043058 | 50 | 1 | 3.5 | 7.0 | 0.00 | 0.00 | 0.00 | 70 | 1016.0 |
| 20260508041549 | 51 | 1 | 6.1 | 10.4 | 0.00 | 0.00 | 0.00 | 69 | 1016.0 |
| 20260508040043 | 52 | 1 | 5.2 | 9.6 | 0.00 | 0.00 | 0.00 | 66 | 1016.2 |
| 20260508034545 | 53 | 1 | 7.0 | 11.3 | 0.00 | 0.00 | 0.00 | 63 | 1016.4 |
| 20260508033044 | 54 | 1 | 7.8 | 12.2 | 0.00 | 0.00 | 0.00 | 58 | 1016.7 |
| 20260508031544 | 54 | 1 | 0.9 | 5.2 | 0.00 | 0.00 | 0.00 | 62 | 1016.2 |
| 20260508030045 | 54 | 1 | 0.9 | 1.7 | 0.00 | 0.00 | 0.00 | 59 | 1015.7 |
| 20260508024544 | 55 | 1 | 1.7 | 3.5 | 0.00 | 0.00 | 0.00 | 56 | 1015.4 |
| 20260508023043 | 55 | 1 | 2.6 | 6.1 | 0.00 | 0.00 | 0.00 | 56 | 1015.6 |
| 20260508021546 | 56 | 1 | 3.5 | 10.4 | 0.00 | 0.00 | 0.00 | 54 | 1015.0 |
| 20260508020049 | 57 | 1 | 7.8 | 13.0 | 0.00 | 0.00 | 0.00 | 52 | 1014.7 |
| 20260508014544 | 58 | 1 | 11.3 | 16.5 | 0.00 | 0.00 | 0.00 | 48 | 1014.7 |
| 20260508013052 | 60 | 1 | 5.2 | 7.0 | 0.00 | 0.00 | 0.00 | 41 | 1014.6 |
| 20260508011543 | 61 | 1 | 2.6 | 4.3 | 0.00 | 0.00 | 0.00 | 40 | 1014.1 |
| 20260508010040 | 62 | 1 | 2.6 | 5.2 | 0.00 | 0.00 | 0.00 | 36 | 1014.0 |
| 20260508004545 | 63 | 1 | 4.3 | 7.0 | 0.00 | 0.00 | 0.00 | 35 | 1013.8 |
| 20260508003042 | 64 | 1 | 3.5 | 7.8 | 0.00 | 0.00 | 0.00 | 32 | 1013.8 |
| 20260508001606 | 64 | 1 | 5.2 | 9.6 | 0.00 | 0.00 | 0.00 | 31 | 1013.8 |
| 20260508000049 | 66 | 1 | 7.0 | 13.0 | 0.00 | 0.00 | 0.00 | 29 | 1013.9 |
| 20260507234553 | 66 | 1 | 10.4 | 14.8 | 0.00 | 0.00 | 0.00 | 27 | 1013.6 |
| 20260507233043 | 66 | 1 | 13.0 | 20.0 | 0.00 | 0.00 | 0.00 | 28 | 1013.6 |
| 20260507231544 | 68 | 1 | 12.2 | 20.0 | 0.00 | 0.00 | 0.00 | 27 | 1013.8 |
| 20260507230049 | 67 | 360 | 11.3 | 18.2 | 0.00 | 0.00 | 0.00 | 27 | 1013.8 |
| 20260507224544 | 67 | 1 | 12.2 | 19.1 | 0.00 | 0.00 | 0.00 | 26 | 1013.8 |
| 20260507223041 | 68 | 1 | 12.2 | 20.9 | 0.00 | 0.00 | 0.00 | 29 | 1013.8 |
| 20260507221541 | 67 | 1 | 13.0 | 20.9 | 0.00 | 0.00 | 0.00 | 27 | 1014.0 |
| 20260507220044 | 68 | 360 | 12.2 | 21.7 | 0.00 | 0.00 | 0.00 | 27 | 1013.9 |
| 20260507214544 | 67 | 1 | 15.6 | 21.7 | 0.00 | 0.00 | 0.00 | 28 | 1014.2 |
| 20260507213048 | 67 | 360 | 18.2 | 24.3 | 0.00 | 0.00 | 0.00 | 27 | 1014.4 |
| 20260507211547 | 67 | 360 | 13.0 | 21.7 | 0.00 | 0.00 | 0.00 | 28 | 1014.6 |
| 20260507210048 | 67 | 1 | 14.8 | 24.3 | 0.00 | 0.00 | 0.00 | 28 | 1014.8 |
| 20260507204548 | 66 | 1 | 16.5 | 25.2 | 0.00 | 0.00 | 0.00 | 30 | 1014.8 |
| 20260507203042 | 67 | 1 | 18.2 | 30.4 | 0.00 | 0.00 | 0.00 | 29 | 1014.9 |
| 20260507201551 | 66 | 1 | 16.5 | 25.2 | 0.00 | 0.00 | 0.00 | 29 | 1015.2 |
| 20260507200045 | 66 | 360 | 17.4 | 23.5 | 0.00 | 0.00 | 0.00 | 31 | 1015.2 |
| 20260507194544 | 66 | 360 | 13.9 | 21.7 | 0.00 | 0.00 | 0.00 | 32 | 1015.4 |
| 20260507193050 | 65 | 1 | 11.3 | 22.6 | 0.00 | 0.00 | 0.00 | 30 | 1015.6 |
| 20260507191550 | 64 | 360 | 15.6 | 22.6 | 0.00 | 0.00 | 0.00 | 33 | 1015.7 |
| 20260507190043 | 64 | 360 | 10.4 | 22.6 | 0.00 | 0.00 | 0.00 | 36 | 1016.0 |
| 20260507184541 | 65 | 1 | 13.9 | 20.9 | 0.00 | 0.01 | 0.00 | 33 | 1016.2 |
| 20260507183043 | 64 | 1 | 9.6 | 18.2 | 0.00 | 0.01 | 0.00 | 32 | 1016.3 |
| 20260507181543 | 64 | 360 | 9.6 | 16.5 | 0.00 | 0.01 | 0.00 | 36 | 1016.6 |
| 20260507180041 | 63 | 1 | 4.3 | 13.0 | 0.00 | 0.01 | 0.00 | 36 | 1016.5 |
| 20260507174547 | 62 | 1 | 7.8 | 15.6 | 0.00 | 0.06 | 0.00 | 36 | 1016.5 |
| 20260507173040 | 61 | 1 | 7.8 | 15.6 | 0.00 | 0.06 | 0.00 | 40 | 1016.9 |
| 20260507171542 | 60 | 1 | 11.3 | 15.6 | 0.00 | 0.06 | 0.00 | 38 | 1016.9 |
| 20260507170046 | 60 | 1 | 11.3 | 15.6 | 0.00 | 0.06 | 0.00 | 39 | 1017.0 |
| 20260507164543 | 60 | 1 | 8.7 | 15.6 | 0.00 | 0.13 | 0.00 | 40 | 1017.1 |
| 20260507163041 | 59 | 1 | 7.0 | 13.0 | 0.00 | 0.13 | 0.00 | 41 | 1017.0 |
| 20260507161541 | 59 | 1 | 6.1 | 13.9 | 0.00 | 0.13 | 0.00 | 44 | 1017.3 |
| 20260507160042 | 57 | 1 | 7.8 | 12.2 | 0.00 | 0.13 | 0.00 | 42 | 1017.5 |
| 20260507154548 | 55 | 1 | 7.0 | 13.0 | 0.00 | 0.20 | 0.00 | 42 | 1017.5 |
| 20260507153048 | 54 | 1 | 7.8 | 14.8 | 0.00 | 0.20 | 0.00 | 45 | 1017.6 |
| 20260507151543 | 52 | 1 | 7.8 | 14.8 | 0.00 | 0.20 | 0.00 | 46 | 1017.6 |
| 20260507150041 | 51 | 360 | 9.6 | 14.8 | 0.00 | 0.20 | 0.00 | 45 | 1017.6 |
| 20260507144546 | 50 | 1 | 8.7 | 14.8 | 0.00 | 0.20 | 0.00 | 47 | 1017.8 |
| 20260507143045 | 49 | 1 | 7.0 | 13.0 | 0.00 | 0.20 | 0.00 | 47 | 1017.8 |
| 20260507141541 | 47 | 1 | 9.6 | 15.6 | 0.00 | 0.20 | 0.00 | 49 | 1017.4 |
| 20260507140052 | 46 | 360 | 7.8 | 15.6 | 0.00 | 0.20 | 0.00 | 51 | 1017.5 |
| 20260507134551 | 45 | 1 | 9.6 | 14.8 | 0.00 | 0.20 | 0.00 | 50 | 1017.6 |
| 20260507133055 | 44 | 1 | 11.3 | 14.8 | 0.00 | 0.20 | 0.00 | 50 | 1017.5 |
| 20260507131555 | 42 | 1 | 8.7 | 18.2 | 0.00 | 0.20 | 0.00 | 51 | 1017.3 |
| 20260507130106 | 42 | 1 | 11.3 | 15.6 | 0.00 | 0.20 | 0.00 | 49 | 1017.1 |
| 20260507124548 | 42 | 1 | 10.4 | 14.8 | 0.00 | 0.20 | 0.00 | 48 | 1016.8 |
| 20260507123042 | 41 | 1 | 11.3 | 16.5 | 0.00 | 0.20 | 0.00 | 50 | 1016.6 |
| 20260507121556 | 41 | 1 | 11.3 | 18.2 | 0.00 | 0.20 | 0.00 | 48 | 1016.7 |
| 20260507120045 | 41 | 360 | 11.3 | 16.5 | 0.00 | 0.20 | 0.00 | 48 | 1016.6 |
| 20260507114555 | 40 | 1 | 9.6 | 13.9 | 0.00 | 0.20 | 0.00 | 50 | 1016.5 |
| 20260507113045 | 40 | 1 | 9.6 | 15.6 | 0.00 | 0.20 | 0.00 | 49 | 1016.4 |
| 20260507111543 | 40 | 1 | 11.3 | 15.6 | 0.00 | 0.20 | 0.00 | 50 | 1016.4 |
| 20260507110053 | 39 | 1 | 10.4 | 15.6 | 0.00 | 0.20 | 0.00 | 52 | 1016.3 |